METAR / TAF

METAR / TAF
Aktuelle Wetterdaten für Piloten (ohne Gewähr!)


Available data for LSZB from the past 2 hours
BERN/BELP
Metar
LSZB 131850Z 11004KT 070V230 CAVOK 12/11 Q1017 NOSIG

18:50 UTC

Wind: 110° 4kt

Visibility:

Sky:

Temp: 12 deg C / 53.6 deg F

Dewpoint: 11 deg C / 51.8 deg F

Pressure: 1017 hPa

TAF
TAF LSZB 131425Z 1315/1324 VRB02KT CAVOK PROB30 1322/1324 9000 MIFG NSC

Available data for LSGS from the past 2 hours
SION (MIL/CIV/AU
Metar
LSGS 131850Z AUTO 07003KT 050V110 CAVOK 15/10 Q1018

18:50 UTC

Wind: 70° 3kt

Visibility:

Sky:

Temp: 15 deg C / 59 deg F

Dewpoint: 10 deg C / 50 deg F

Pressure: 1018 hPa

TAF
TAF LSGS 131425Z 1315/1324 VRB03KT 9999 FEW150

Available data for LSZG from the past 2 hours
GRENCHEN
Metar
LSZG 131850Z AUTO 13001KT 3300 BR NSC 11/11 Q1017

18:50 UTC

Wind: 130° 1kt

Visibility: 3300 m

Sky:

Temp: 11 deg C / 51.8 deg F

Dewpoint: 11 deg C / 51.8 deg F

Pressure: 1017 hPa

TAF
TAF LSZG 131425Z 1315/1324 24004KT CAVOK BECMG 1319/1322 9000 MIFG NSC PROB40 1321/1324 3000 BCFG PROB30 1323/1324 0400 FG

Available data for LSMP from the past 2 hours
PAYERNE (MIL/AUT
Metar
LSMP 131820Z AUTO VRB01KT 9999NDV NCD 15/12 Q1017 RMK

Available data for LSZA from the past 2 hours
LUGANO (PVT/AUT)
Metar
LSZA 131850Z AUTO 36002KT CAVOK 13/12 Q1024

18:50 UTC

Wind: 360° 2kt

Visibility:

Sky:

Temp: 13 deg C / 55.4 deg F

Dewpoint: 12 deg C / 53.6 deg F

Pressure: 1024 hPa

TAF
TAF LSZA 131425Z 1315/1324 VRB03KT 9999 FEW050 BECMG 1315/1317 CAVOK BECMG 1320/1324 7000 NSC

Available data for LSZS from the past 2 hours
SAMEDAN
Metar
LSZS 131850Z AUTO 19005KT 150V240 CAVOK 07/04 Q1026

18:50 UTC

Wind: 190° 5kt

Visibility:

Sky:

Temp: 7 deg C / 44.6 deg F

Dewpoint: 4 deg C / 39.2 deg F

Pressure: 1026 hPa

TAF
TAF LSZS 131425Z 1315/1324 20010KT CAVOK TX16/1315Z BECMG 1316/1319 VRB03KT